Terminal Aerodrome Forecast
Issued by NWS

Home | Current Version | Previous Version | Text Only | Print | Product List | Glossary On
Versions: 1 2 3 4 5 6 7 8 9 10 11 12
000
FTUS45 KTFX 172300
TAFGTF
TAF
KGTF 172333Z 1800/1824 19006KT P6SM VCSH SCT080 BKN150
     FM180300 20008KT P6SM BKN150
     FM182000 23015KT P6SM VCSH SCT080 BKN120=

USA.gov is the U.S. government's official web portal to all federal, state and local government web resources and services.